ウルムチ の空港の天気 - METARとTAF

ウルムチ地窩堡国際空港 ( ZWWW / URC ) - 中国 新疆ウイグル自治区ウルムチ市
飛行場実況気象(Metar)
観測時間06/18 03:30 CST (06/17 19:30 UTC)
風向・風速南南東 2m/s
視程10km以上
天気現象
なし
気温19℃
湿度56%
気圧1011hPa
METARZWWW 171930Z 16002MPS CAVOK 19/10 Q1011 NOSIG
過去の天気等 Google飛行場航空写真 Wunderground天気予報

過去48時間のMETAR

飛行場予報(TAF)
発表時間: 6/13 05:05 CST (6/12 21:05 UTC)
予報対象時間: 13日8時 CST ~ 14日8時 CST
風向・風速西北西 4m/s
視程10km以上
天気現象弱い雨
全天を覆う雲 雲底高度 1220m
13日17時 CST ~ 13日18時 CST に徐々に
風向・風速北 4m/s
視程10km以上
なし
13日21時 CST ~ 13日22時 CST に徐々に
風向・風速南 4m/s
TAF ZWWW 122105Z 1300/1324 30004MPS 9999 -RA OVC040 TX20/1309Z TN13/1323Z
BECMG 1309/1310 01004MPS CAVOK
BECMG 1313/1314 18004MPS